Weather History for KAXH - August, 2013

Change the Weather History Date:

Wednesday, August 7, 2013

  Actual Average (KHOU) Record (KHOU)
Temperature  
Mean Temperature 86 °F 85 °F  
Max Temperature 99 °F 95 °F 104 °F (2003)
Min Temperature 73 °F 75 °F 63 °F (1891)
Cooling Degree Days 21 20  
Month to date cooling degree days 140  
Year to date cooling degree days 1913  
Since 1 June cooling degree days 1261  
Growing Degree Days 36 (Base 50)    
Moisture  
Dew Point 72 °F    
Average Humidity 72    
Maximum Humidity 100    
Minimum Humidity 29    
Precipitation  
Precipitation 0.00 in 0.11 in 2.61 in (1914)
Month to date precipitation 0.73  
Year to date precipitation 28.84  
Sea Level Pressure  
Sea Level Pressure 29.92 in    
Wind  
Wind Speed 3 mph (South)    
Max Wind Speed 13 mph    
Max Gust Speed 20 mph    
Visibility 5 miles    
Events Fog    
T = Trace of Precipitation, MM = Missing Value Source: NWS Daily Summary

Daily Weather History Graph

Daily Weather History Graph

Search for Another Location

Airport or City:

Trip Planner

Search our weather history database for the weather conditions in past years. The results will help you decide how hot, cold, wet, or windy it might be!

Date:

Astronomy

Aug. 07, 2013 Rise Set
Actual Time 6:45 AM CDT 8:09 PM CDT
Civil Twilight 6:20 AM CDT 8:34 PM CDT
Nautical Twilight 5:49 AM CDT 9:04 PM CDT
Astronomical Twilight 5:18 AM CDT 9:36 PM CDT
Moon 7:26 AM CDT 8:27 PM CDT
Length of Visible Light 14h 14m
Length of Day
13h 23m
New Moon, 1% of the Moon is Illuminated
Aug 7
New Moon
Aug 14
First Quarter
Aug 20
Full
Aug 28
Last Quarter
Sep 5
New

Hourly Weather History & Observations

Time (CDT) Temp. Heat Index Dew Point Humidity Pressure Visibility Wind Dir Wind Speed Gust Speed Precip Events Conditions
12:15 AM 76.1 °F - 75.4 °F 98% 29.95 in 5.0 mi Calm Calm - N/A   Clear
12:35 AM 76.1 °F - 75.6 °F 98% 29.96 in 4.0 mi Calm Calm - N/A   Clear
12:55 AM 76.1 °F - 75.6 °F 98% 29.96 in 4.0 mi Calm Calm - N/A   Clear
1:15 AM 75.4 °F - 75.4 °F 100% 29.96 in 3.0 mi Calm Calm - N/A   Clear
1:35 AM 75.2 °F - 75.2 °F 100% 29.96 in 0.8 mi Calm Calm - N/A   Scattered Clouds
1:55 AM 74.7 °F - 74.7 °F 100% 29.95 in 1.5 mi Calm Calm - N/A   Mist
2:15 AM 74.7 °F - 74.7 °F 100% 29.95 in 2.5 mi Calm Calm - N/A   Clear
2:35 AM 74.7 °F - 74.7 °F 100% 29.95 in 2.0 mi Calm Calm - N/A   Clear
2:55 AM 74.7 °F - 74.7 °F 100% 29.94 in 2.5 mi Calm Calm - N/A   Clear
3:15 AM 75.0 °F - 75.0 °F 100% 29.95 in 3.0 mi Calm Calm - N/A   Clear
3:35 AM 75.2 °F - 75.2 °F 100% 29.94 in 3.0 mi Calm Calm - N/A   Clear
3:55 AM 75.0 °F - 75.0 °F 100% 29.94 in 2.0 mi Calm Calm - N/A   Clear
4:15 AM 74.7 °F - 74.7 °F 100% 29.93 in 1.8 mi Calm Calm - N/A   Mist
4:35 AM 74.7 °F - 74.7 °F 100% 29.93 in 2.5 mi Calm Calm - N/A   Clear
4:55 AM 75.2 °F - 75.2 °F 100% 29.93 in 3.0 mi Calm Calm - N/A   Clear
5:15 AM 75.2 °F - 75.2 °F 100% 29.93 in 2.0 mi Calm Calm - N/A   Clear
5:35 AM 74.7 °F - 74.7 °F 100% 29.93 in 0.2 mi Calm Calm - N/A Fog Fog
5:55 AM 74.3 °F - 74.3 °F 100% 29.93 in 0.2 mi Calm Calm - N/A Fog Fog
6:15 AM 74.1 °F - 74.1 °F 100% 29.93 in 0.2 mi Calm Calm - N/A Fog Fog
6:35 AM 73.9 °F - 73.9 °F 100% 29.93 in 0.2 mi Calm Calm - N/A Fog Fog
6:55 AM 74.1 °F - 74.1 °F 100% 29.93 in 0.5 mi Calm Calm - N/A Fog Fog
7:15 AM 75.2 °F - 75.2 °F 100% 29.93 in 3.0 mi Calm Calm - N/A   Scattered Clouds
7:35 AM 76.1 °F - 76.1 °F 100% 29.93 in 4.0 mi Calm Calm - N/A   Clear
7:55 AM 77.0 °F - 77.0 °F 100% 29.93 in 4.0 mi Calm Calm - N/A   Clear
8:15 AM 77.9 °F - 77.9 °F 100% 29.94 in 5.0 mi Calm Calm - N/A   Clear
8:35 AM 79.2 °F - 78.8 °F 99% 29.94 in 7.0 mi Calm Calm - N/A   Clear
8:55 AM 81.5 °F 90.2 °F 78.8 °F 91% 29.95 in 7.0 mi South 3.5 mph - N/A   Clear
9:15 AM 83.1 °F 93.6 °F 78.6 °F 86% 29.95 in 7.0 mi South 4.6 mph - N/A   Scattered Clouds
9:35 AM 84.9 °F 96.6 °F 78.1 °F 80% 29.96 in 7.0 mi SSW 6.9 mph - N/A   Scattered Clouds
9:55 AM 86.0 °F 94.2 °F 74.5 °F 68% 29.96 in 7.0 mi SSW 9.2 mph - N/A   Scattered Clouds
10:15 AM 87.4 °F 96.2 °F 74.3 °F 65% 29.96 in 7.0 mi South 6.9 mph - N/A   Clear
10:35 AM 88.7 °F 97.7 °F 73.9 °F 62% 29.96 in 7.0 mi SSW 6.9 mph - N/A   Mostly Cloudy
10:55 AM 89.2 °F 96.9 °F 72.5 °F 58% 29.96 in 7.0 mi SSW 8.1 mph 18.4 mph N/A   Scattered Clouds
11:15 AM 90.7 °F 98.5 °F 72.5 °F 55% 29.96 in 7.0 mi South 10.4 mph - N/A   Scattered Clouds
11:35 AM 91.9 °F 98.4 °F 70.9 °F 50% 29.96 in 7.0 mi SW 9.2 mph 17.3 mph N/A   Scattered Clouds
11:55 AM 92.5 °F 98.4 °F 70.3 °F 48% 29.96 in 7.0 mi WSW 9.2 mph - N/A   Scattered Clouds
12:15 PM 94.5 °F 100.2 °F 69.4 °F 44% 29.96 in 7.0 mi South 4.6 mph - N/A   Clear
12:35 PM 94.8 °F 98.7 °F 67.3 °F 40% 29.96 in 7.0 mi SSW 6.9 mph - N/A   Clear
12:55 PM 95.9 °F 100.1 °F 67.1 °F 39% 29.95 in 7.0 mi SSW 5.8 mph - N/A   Scattered Clouds
1:15 PM 95.9 °F 99.0 °F 65.7 °F 37% 29.94 in 7.0 mi South 5.8 mph - N/A   Scattered Clouds
1:35 PM 97.0 °F 100.4 °F 66.0 °F 36% 29.93 in 7.0 mi SSE 6.9 mph - N/A   Clear
1:55 PM 97.2 °F 99.6 °F 64.6 °F 34% 29.92 in 7.0 mi South 6.9 mph - N/A   Clear
2:15 PM 97.7 °F 100.6 °F 64.8 °F 34% 29.92 in 7.0 mi SSE 11.5 mph - N/A   Clear
2:35 PM 98.4 °F 100.2 °F 62.6 °F 31% 29.92 in 7.0 mi SSW 12.7 mph 19.6 mph N/A   Clear
2:55 PM 99.3 °F 100.6 °F 61.9 °F 29% 29.91 in 7.0 mi SSW 10.4 mph - N/A   Clear
3:15 PM 99.1 °F 101.4 °F 63.1 °F 31% 29.90 in 7.0 mi SSW 8.1 mph - N/A   Clear
3:35 PM 98.8 °F 100.3 °F 62.2 °F 30% 29.89 in 7.0 mi South 4.6 mph 17.3 mph N/A   Clear
3:55 PM 98.4 °F 101.9 °F 65.5 °F 34% 29.88 in 7.0 mi SSW 11.5 mph - N/A   Clear
4:15 PM 97.7 °F 101.7 °F 66.7 °F 36% 29.87 in 7.0 mi SE 9.2 mph - N/A   Clear
4:35 PM 98.1 °F 102.4 °F 67.3 °F 36% 29.87 in 7.0 mi SSW 8.1 mph - N/A   Scattered Clouds
4:55 PM 97.3 °F 102.3 °F 67.5 °F 38% 29.87 in 10.0 mi SSE 9.2 mph - N/A   Clear
5:15 PM 97.3 °F 102.3 °F 67.5 °F 38% 29.87 in 7.0 mi South 9.2 mph - N/A   Clear
5:35 PM 96.1 °F 99.3 °F 65.8 °F 37% 29.86 in 10.0 mi South 9.2 mph - N/A   Clear
5:55 PM 95.5 °F 97.4 °F 64.0 °F 35% 29.86 in 7.0 mi South 10.4 mph - N/A   Clear
6:15 PM 94.3 °F 96.2 °F 64.2 °F 37% 29.86 in 7.0 mi South 6.9 mph 16.1 mph N/A   Clear
6:35 PM 92.5 °F 97.4 °F 69.3 °F 46% 29.86 in 7.0 mi SSE 11.5 mph - N/A   Clear
6:55 PM 90.3 °F 96.2 °F 70.5 °F 52% 29.86 in 7.0 mi SSE 11.5 mph 19.6 mph N/A   Clear
7:15 PM 88.9 °F 93.8 °F 70.0 °F 53% 29.87 in 7.0 mi SSE 11.5 mph - N/A   Scattered Clouds
7:35 PM 87.3 °F 92.0 °F 70.0 °F 56% 29.88 in 7.0 mi SSE 10.4 mph - N/A   Clear
7:55 PM 85.8 °F 90.8 °F 70.7 °F 60% 29.88 in 7.0 mi SSE 9.2 mph - N/A   Clear
8:15 PM 84.4 °F 90.0 °F 71.8 °F 66% 29.88 in 7.0 mi South 8.1 mph - N/A   Clear
8:35 PM 83.5 °F 89.1 °F 72.5 °F 69% 29.89 in 7.0 mi South 8.1 mph - N/A   Clear
8:55 PM 82.2 °F 87.3 °F 72.5 °F 72% 29.90 in 7.0 mi SSE 4.6 mph - N/A   Clear
9:15 PM 80.1 °F 84.1 °F 72.5 °F 78% 29.90 in 7.0 mi SSE 3.5 mph - N/A   Clear
9:35 PM 79.3 °F - 72.7 °F 80% 29.91 in 7.0 mi SSE 3.5 mph - N/A   Clear
9:55 PM 79.2 °F - 73.2 °F 82% 29.91 in 7.0 mi SSE 3.5 mph - N/A   Clear
10:15 PM 78.1 °F - 73.0 °F 84% 29.92 in 7.0 mi Calm Calm - N/A   Clear
10:35 PM 77.4 °F - 74.1 °F 90% 29.92 in 7.0 mi SE 3.5 mph - N/A   Clear
10:55 PM 77.2 °F - 75.2 °F 94% 29.92 in 5.0 mi SSE 4.6 mph - N/A   Clear
11:15 PM 77.0 °F - 75.2 °F 94% 29.92 in 5.0 mi Calm Calm - N/A   Clear
11:35 PM 76.6 °F - 75.4 °F 96% 29.93 in 5.0 mi SE 3.5 mph - N/A   Clear
11:55 PM 76.5 °F - 75.2 °F 96% 29.93 in 5.0 mi SSE 3.5 mph - N/A   Clear